sensor_id;sensor_type;location;lat;lon;timestamp;P1;durP1;ratioP1;P2;durP2;ratioP2
54157;SDS011;40065;49.894;10.358;2023-04-15T00:01:01;4.28;;;2.50;;
54157;SDS011;40065;49.894;10.358;2023-04-15T00:06:04;5.60;;;3.50;;
54157;SDS011;40065;49.894;10.358;2023-04-15T00:11:06;4.78;;;3.28;;
54157;SDS011;40065;49.894;10.358;2023-04-15T00:16:08;4.75;;;3.33;;
54157;SDS011;40065;49.894;10.358;2023-04-15T00:21:11;4.30;;;2.85;;
54157;SDS011;40065;49.894;10.358;2023-04-15T00:26:12;8.80;;;5.63;;
54157;SDS011;40065;49.894;10.358;2023-04-15T00:31:15;5.15;;;3.90;;
54157;SDS011;40065;49.894;10.358;2023-04-15T00:36:17;8.15;;;5.10;;
54157;SDS011;40065;49.894;10.358;2023-04-15T00:41:19;8.25;;;5.55;;
54157;SDS011;40065;49.894;10.358;2023-04-15T00:46:21;7.95;;;5.88;;
54157;SDS011;40065;49.894;10.358;2023-04-15T00:51:23;8.05;;;5.10;;
54157;SDS011;40065;49.894;10.358;2023-04-15T00:56:25;7.45;;;4.57;;
54157;SDS011;40065;49.894;10.358;2023-04-15T01:01:29;8.47;;;4.90;;
54157;SDS011;40065;49.894;10.358;2023-04-15T01:06:31;6.72;;;4.03;;
54157;SDS011;40065;49.894;10.358;2023-04-15T01:11:33;8.45;;;5.22;;
54157;SDS011;40065;49.894;10.358;2023-04-15T01:16:36;16.48;;;8.77;;
54157;SDS011;40065;49.894;10.358;2023-04-15T01:21:40;9.00;;;6.57;;
54157;SDS011;40065;49.894;10.358;2023-04-15T01:26:42;10.18;;;5.85;;
54157;SDS011;40065;49.894;10.358;2023-04-15T01:31:49;10.77;;;7.07;;
54157;SDS011;40065;49.894;10.358;2023-04-15T01:36:52;7.40;;;5.10;;
54157;SDS011;40065;49.894;10.358;2023-04-15T01:41:55;7.93;;;5.47;;
54157;SDS011;40065;49.894;10.358;2023-04-15T01:46:57;8.95;;;6.18;;
54157;SDS011;40065;49.894;10.358;2023-04-15T01:52:00;12.82;;;9.05;;
54157;SDS011;40065;49.894;10.358;2023-04-15T01:57:02;12.15;;;8.07;;
54157;SDS011;40065;49.894;10.358;2023-04-15T02:02:04;6.53;;;4.97;;
54157;SDS011;40065;49.894;10.358;2023-04-15T02:07:06;7.55;;;4.82;;
54157;SDS011;40065;49.894;10.358;2023-04-15T02:12:09;11.55;;;6.90;;
54157;SDS011;40065;49.894;10.358;2023-04-15T02:17:10;7.63;;;5.55;;
54157;SDS011;40065;49.894;10.358;2023-04-15T02:22:12;6.80;;;4.80;;
54157;SDS011;40065;49.894;10.358;2023-04-15T02:27:20;6.35;;;4.32;;
54157;SDS011;40065;49.894;10.358;2023-04-15T02:32:23;6.63;;;4.80;;
54157;SDS011;40065;49.894;10.358;2023-04-15T02:37:28;6.68;;;4.63;;
54157;SDS011;40065;49.894;10.358;2023-04-15T02:42:31;8.65;;;5.40;;
54157;SDS011;40065;49.894;10.358;2023-04-15T02:47:34;7.75;;;4.88;;
54157;SDS011;40065;49.894;10.358;2023-04-15T02:52:39;8.43;;;5.53;;
54157;SDS011;40065;49.894;10.358;2023-04-15T02:57:42;12.07;;;6.87;;
54157;SDS011;40065;49.894;10.358;2023-04-15T03:02:45;8.13;;;4.80;;
54157;SDS011;40065;49.894;10.358;2023-04-15T03:07:47;7.40;;;5.72;;
54157;SDS011;40065;49.894;10.358;2023-04-15T03:12:49;6.95;;;4.65;;
54157;SDS011;40065;49.894;10.358;2023-04-15T03:17:53;11.18;;;7.25;;
54157;SDS011;40065;49.894;10.358;2023-04-15T03:22:55;9.70;;;6.50;;
54157;SDS011;40065;49.894;10.358;2023-04-15T03:27:58;9.25;;;6.43;;
54157;SDS011;40065;49.894;10.358;2023-04-15T03:33:00;10.48;;;6.95;;
54157;SDS011;40065;49.894;10.358;2023-04-15T03:38:03;11.10;;;8.10;;
54157;SDS011;40065;49.894;10.358;2023-04-15T03:43:04;7.97;;;5.65;;
54157;SDS011;40065;49.894;10.358;2023-04-15T03:48:06;8.52;;;5.60;;
54157;SDS011;40065;49.894;10.358;2023-04-15T03:53:20;9.57;;;6.40;;
54157;SDS011;40065;49.894;10.358;2023-04-15T04:03:24;12.57;;;7.50;;
54157;SDS011;40065;49.894;10.358;2023-04-15T04:08:26;9.90;;;6.80;;
54157;SDS011;40065;49.894;10.358;2023-04-15T04:13:28;11.95;;;8.02;;
54157;SDS011;40065;49.894;10.358;2023-04-15T04:18:30;13.93;;;8.27;;
54157;SDS011;40065;49.894;10.358;2023-04-15T04:23:32;14.02;;;8.68;;
54157;SDS011;40065;49.894;10.358;2023-04-15T04:28:34;17.30;;;12.10;;
54157;SDS011;40065;49.894;10.358;2023-04-15T04:33:36;24.83;;;16.70;;
54157;SDS011;40065;49.894;10.358;2023-04-15T04:38:38;28.05;;;18.60;;
54157;SDS011;40065;49.894;10.358;2023-04-15T04:43:39;30.63;;;19.23;;
54157;SDS011;40065;49.894;10.358;2023-04-15T04:48:41;32.28;;;19.60;;
54157;SDS011;40065;49.894;10.358;2023-04-15T04:53:45;32.50;;;19.73;;
54157;SDS011;40065;49.894;10.358;2023-04-15T04:58:46;32.80;;;20.73;;
54157;SDS011;40065;49.894;10.358;2023-04-15T05:03:48;33.70;;;21.65;;
54157;SDS011;40065;49.894;10.358;2023-04-15T05:08:50;30.63;;;19.40;;
54157;SDS011;40065;49.894;10.358;2023-04-15T05:13:52;33.65;;;19.70;;
54157;SDS011;40065;49.894;10.358;2023-04-15T05:18:53;34.53;;;19.55;;
54157;SDS011;40065;49.894;10.358;2023-04-15T05:23:55;32.22;;;17.55;;
54157;SDS011;40065;49.894;10.358;2023-04-15T05:28:57;26.63;;;16.75;;
54157;SDS011;40065;49.894;10.358;2023-04-15T05:33:59;20.52;;;13.77;;
54157;SDS011;40065;49.894;10.358;2023-04-15T05:39:01;21.45;;;14.75;;
54157;SDS011;40065;49.894;10.358;2023-04-15T05:44:04;20.65;;;14.30;;
54157;SDS011;40065;49.894;10.358;2023-04-15T05:49:06;18.98;;;13.02;;
54157;SDS011;40065;49.894;10.358;2023-04-15T05:54:08;15.07;;;10.13;;
54157;SDS011;40065;49.894;10.358;2023-04-15T05:59:10;12.73;;;9.30;;
54157;SDS011;40065;49.894;10.358;2023-04-15T06:04:11;15.60;;;10.68;;
54157;SDS011;40065;49.894;10.358;2023-04-15T06:09:13;17.15;;;10.45;;
54157;SDS011;40065;49.894;10.358;2023-04-15T06:14:16;14.43;;;9.63;;
54157;SDS011;40065;49.894;10.358;2023-04-15T06:19:17;14.82;;;9.40;;
54157;SDS011;40065;49.894;10.358;2023-04-15T06:24:19;12.75;;;9.25;;
54157;SDS011;40065;49.894;10.358;2023-04-15T06:29:21;12.27;;;8.35;;
54157;SDS011;40065;49.894;10.358;2023-04-15T06:34:23;13.68;;;9.55;;
54157;SDS011;40065;49.894;10.358;2023-04-15T06:39:25;12.15;;;8.90;;
54157;SDS011;40065;49.894;10.358;2023-04-15T06:44:27;10.80;;;8.00;;
54157;SDS011;40065;49.894;10.358;2023-04-15T06:49:30;9.23;;;6.47;;
54157;SDS011;40065;49.894;10.358;2023-04-15T06:54:33;10.68;;;7.13;;
54157;SDS011;40065;49.894;10.358;2023-04-15T06:59:35;7.38;;;4.55;;
54157;SDS011;40065;49.894;10.358;2023-04-15T07:04:37;6.70;;;5.10;;
54157;SDS011;40065;49.894;10.358;2023-04-15T07:09:40;7.75;;;5.57;;
54157;SDS011;40065;49.894;10.358;2023-04-15T07:14:42;6.38;;;4.90;;
54157;SDS011;40065;49.894;10.358;2023-04-15T07:19:43;7.03;;;5.00;;
54157;SDS011;40065;49.894;10.358;2023-04-15T07:24:45;10.25;;;6.57;;
54157;SDS011;40065;49.894;10.358;2023-04-15T07:29:47;7.88;;;5.70;;
54157;SDS011;40065;49.894;10.358;2023-04-15T07:34:49;8.95;;;6.60;;
54157;SDS011;40065;49.894;10.358;2023-04-15T07:39:50;8.90;;;7.03;;
54157;SDS011;40065;49.894;10.358;2023-04-15T07:44:53;7.18;;;5.18;;
54157;SDS011;40065;49.894;10.358;2023-04-15T07:49:55;6.70;;;4.80;;
54157;SDS011;40065;49.894;10.358;2023-04-15T07:54:56;6.90;;;3.90;;
54157;SDS011;40065;49.894;10.358;2023-04-15T07:59:59;8.02;;;5.43;;
54157;SDS011;40065;49.894;10.358;2023-04-15T08:05:00;12.45;;;7.35;;
54157;SDS011;40065;49.894;10.358;2023-04-15T08:10:05;12.50;;;7.53;;
54157;SDS011;40065;49.894;10.358;2023-04-15T08:15:07;11.65;;;7.63;;
54157;SDS011;40065;49.894;10.358;2023-04-15T08:20:09;8.32;;;5.72;;
54157;SDS011;40065;49.894;10.358;2023-04-15T08:25:11;7.63;;;6.00;;
54157;SDS011;40065;49.894;10.358;2023-04-15T08:30:13;9.85;;;6.38;;
54157;SDS011;40065;49.894;10.358;2023-04-15T08:35:15;8.23;;;5.90;;
54157;SDS011;40065;49.894;10.358;2023-04-15T08:40:17;5.63;;;4.53;;
54157;SDS011;40065;49.894;10.358;2023-04-15T08:45:19;5.68;;;3.95;;
54157;SDS011;40065;49.894;10.358;2023-04-15T08:50:21;4.80;;;3.42;;
54157;SDS011;40065;49.894;10.358;2023-04-15T08:55:25;6.13;;;3.25;;
54157;SDS011;40065;49.894;10.358;2023-04-15T09:00:33;3.10;;;1.80;;
54157;SDS011;40065;49.894;10.358;2023-04-15T09:05:35;8.00;;;3.35;;
54157;SDS011;40065;49.894;10.358;2023-04-15T09:10:37;7.32;;;3.42;;
54157;SDS011;40065;49.894;10.358;2023-04-15T09:15:41;5.57;;;3.25;;
54157;SDS011;40065;49.894;10.358;2023-04-15T09:20:44;4.00;;;2.67;;
54157;SDS011;40065;49.894;10.358;2023-04-15T09:25:46;3.85;;;2.67;;
54157;SDS011;40065;49.894;10.358;2023-04-15T09:30:50;4.00;;;2.50;;
54157;SDS011;40065;49.894;10.358;2023-04-15T09:35:59;4.45;;;2.78;;
54157;SDS011;40065;49.894;10.358;2023-04-15T09:41:02;3.83;;;2.75;;
54157;SDS011;40065;49.894;10.358;2023-04-15T09:46:17;7.30;;;3.30;;
54157;SDS011;40065;49.894;10.358;2023-04-15T09:51:19;5.40;;;3.53;;
54157;SDS011;40065;49.894;10.358;2023-04-15T09:56:36;3.17;;;2.15;;
54157;SDS011;40065;49.894;10.358;2023-04-15T10:01:41;2.78;;;2.22;;
54157;SDS011;40065;49.894;10.358;2023-04-15T10:06:43;3.05;;;2.08;;
54157;SDS011;40065;49.894;10.358;2023-04-15T10:11:45;2.58;;;1.95;;
54157;SDS011;40065;49.894;10.358;2023-04-15T10:16:50;3.28;;;2.00;;
54157;SDS011;40065;49.894;10.358;2023-04-15T10:21:53;3.73;;;2.60;;
54157;SDS011;40065;49.894;10.358;2023-04-15T10:26:56;5.80;;;2.80;;
54157;SDS011;40065;49.894;10.358;2023-04-15T10:31:59;4.30;;;3.30;;
54157;SDS011;40065;49.894;10.358;2023-04-15T10:37:01;5.85;;;4.20;;
54157;SDS011;40065;49.894;10.358;2023-04-15T10:47:09;8.90;;;5.55;;
54157;SDS011;40065;49.894;10.358;2023-04-15T10:52:13;7.95;;;5.82;;
54157;SDS011;40065;49.894;10.358;2023-04-15T10:57:22;7.78;;;5.55;;
54157;SDS011;40065;49.894;10.358;2023-04-15T11:08:19;7.13;;;4.78;;
54157;SDS011;40065;49.894;10.358;2023-04-15T11:13:48;8.70;;;5.22;;
54157;SDS011;40065;49.894;10.358;2023-04-15T11:18:54;12.07;;;7.07;;
54157;SDS011;40065;49.894;10.358;2023-04-15T11:23:56;9.15;;;5.82;;
54157;SDS011;40065;49.894;10.358;2023-04-15T11:28:58;8.85;;;5.82;;
54157;SDS011;40065;49.894;10.358;2023-04-15T11:34:02;6.73;;;5.00;;
54157;SDS011;40065;49.894;10.358;2023-04-15T11:39:05;8.63;;;5.70;;
54157;SDS011;40065;49.894;10.358;2023-04-15T11:44:17;6.93;;;4.85;;
54157;SDS011;40065;49.894;10.358;2023-04-15T11:49:29;7.95;;;5.53;;
54157;SDS011;40065;49.894;10.358;2023-04-15T11:54:35;6.30;;;4.38;;
54157;SDS011;40065;49.894;10.358;2023-04-15T11:59:41;6.80;;;4.00;;
54157;SDS011;40065;49.894;10.358;2023-04-15T12:04:46;6.22;;;3.95;;
54157;SDS011;40065;49.894;10.358;2023-04-15T12:09:53;5.45;;;3.85;;
54157;SDS011;40065;49.894;10.358;2023-04-15T12:15:14;5.45;;;3.70;;
54157;SDS011;40065;49.894;10.358;2023-04-15T12:20:25;6.00;;;4.53;;
54157;SDS011;40065;49.894;10.358;2023-04-15T12:25:33;5.93;;;3.85;;
54157;SDS011;40065;49.894;10.358;2023-04-15T12:30:47;6.35;;;3.63;;
54157;SDS011;40065;49.894;10.358;2023-04-15T12:35:52;5.63;;;3.75;;
54157;SDS011;40065;49.894;10.358;2023-04-15T12:40:54;5.35;;;3.85;;
54157;SDS011;40065;49.894;10.358;2023-04-15T12:45:56;5.32;;;3.92;;
54157;SDS011;40065;49.894;10.358;2023-04-15T12:50:57;6.70;;;3.80;;
54157;SDS011;40065;49.894;10.358;2023-04-15T12:55:59;6.88;;;4.90;;
54157;SDS011;40065;49.894;10.358;2023-04-15T13:01:01;6.13;;;4.45;;
54157;SDS011;40065;49.894;10.358;2023-04-15T13:06:17;7.45;;;4.40;;
54157;SDS011;40065;49.894;10.358;2023-04-15T13:11:20;6.88;;;3.80;;
54157;SDS011;40065;49.894;10.358;2023-04-15T13:16:22;4.38;;;3.35;;
54157;SDS011;40065;49.894;10.358;2023-04-15T13:21:24;5.00;;;3.50;;
54157;SDS011;40065;49.894;10.358;2023-04-15T13:26:27;4.47;;;3.20;;
54157;SDS011;40065;49.894;10.358;2023-04-15T13:31:29;4.30;;;3.20;;
54157;SDS011;40065;49.894;10.358;2023-04-15T13:36:31;5.22;;;3.20;;
54157;SDS011;40065;49.894;10.358;2023-04-15T13:41:33;6.38;;;4.20;;
54157;SDS011;40065;49.894;10.358;2023-04-15T13:46:35;5.53;;;3.55;;
54157;SDS011;40065;49.894;10.358;2023-04-15T13:51:37;5.15;;;3.40;;
54157;SDS011;40065;49.894;10.358;2023-04-15T13:56:40;4.57;;;3.33;;
54157;SDS011;40065;49.894;10.358;2023-04-15T14:01:42;7.22;;;3.70;;
54157;SDS011;40065;49.894;10.358;2023-04-15T14:06:45;7.85;;;4.25;;
54157;SDS011;40065;49.894;10.358;2023-04-15T14:11:47;6.40;;;3.97;;
54157;SDS011;40065;49.894;10.358;2023-04-15T14:17:06;5.90;;;3.78;;
54157;SDS011;40065;49.894;10.358;2023-04-15T14:22:40;4.93;;;3.50;;
54157;SDS011;40065;49.894;10.358;2023-04-15T14:28:13;4.45;;;3.25;;
54157;SDS011;40065;49.894;10.358;2023-04-15T14:33:24;5.30;;;3.78;;
54157;SDS011;40065;49.894;10.358;2023-04-15T14:38:41;4.57;;;3.35;;
54157;SDS011;40065;49.894;10.358;2023-04-15T14:44:12;5.07;;;3.10;;
54157;SDS011;40065;49.894;10.358;2023-04-15T14:49:17;4.88;;;3.47;;
54157;SDS011;40065;49.894;10.358;2023-04-15T14:54:20;4.13;;;2.83;;
54157;SDS011;40065;49.894;10.358;2023-04-15T14:59:22;3.30;;;2.80;;
54157;SDS011;40065;49.894;10.358;2023-04-15T15:04:24;5.88;;;3.83;;
54157;SDS011;40065;49.894;10.358;2023-04-15T15:09:27;3.95;;;2.97;;
54157;SDS011;40065;49.894;10.358;2023-04-15T15:14:29;4.38;;;2.72;;
54157;SDS011;40065;49.894;10.358;2023-04-15T15:19:31;5.32;;;3.45;;
54157;SDS011;40065;49.894;10.358;2023-04-15T15:24:33;4.72;;;3.17;;
54157;SDS011;40065;49.894;10.358;2023-04-15T15:29:36;4.55;;;3.25;;
54157;SDS011;40065;49.894;10.358;2023-04-15T15:34:38;4.03;;;2.90;;
54157;SDS011;40065;49.894;10.358;2023-04-15T15:39:40;8.00;;;4.18;;
54157;SDS011;40065;49.894;10.358;2023-04-15T15:44:44;26.25;;;13.50;;
54157;SDS011;40065;49.894;10.358;2023-04-15T15:49:50;6.00;;;3.58;;
54157;SDS011;40065;49.894;10.358;2023-04-15T15:54:52;4.28;;;2.70;;
54157;SDS011;40065;49.894;10.358;2023-04-15T15:59:53;6.22;;;3.92;;
54157;SDS011;40065;49.894;10.358;2023-04-15T16:05:12;4.97;;;3.00;;
54157;SDS011;40065;49.894;10.358;2023-04-15T16:10:14;10.70;;;5.85;;
54157;SDS011;40065;49.894;10.358;2023-04-15T16:15:16;10.85;;;5.80;;
54157;SDS011;40065;49.894;10.358;2023-04-15T16:20:18;5.93;;;3.58;;
54157;SDS011;40065;49.894;10.358;2023-04-15T16:25:20;3.47;;;2.53;;
54157;SDS011;40065;49.894;10.358;2023-04-15T16:30:22;3.67;;;2.67;;
54157;SDS011;40065;49.894;10.358;2023-04-15T16:35:24;3.40;;;2.42;;
54157;SDS011;40065;49.894;10.358;2023-04-15T16:40:26;7.22;;;4.43;;
54157;SDS011;40065;49.894;10.358;2023-04-15T16:45:28;6.28;;;4.53;;
54157;SDS011;40065;49.894;10.358;2023-04-15T16:50:29;3.25;;;2.65;;
54157;SDS011;40065;49.894;10.358;2023-04-15T16:55:31;3.78;;;2.70;;
54157;SDS011;40065;49.894;10.358;2023-04-15T17:00:33;3.30;;;2.25;;
54157;SDS011;40065;49.894;10.358;2023-04-15T17:05:37;2.25;;;1.85;;
54157;SDS011;40065;49.894;10.358;2023-04-15T17:10:39;2.80;;;2.20;;
54157;SDS011;40065;49.894;10.358;2023-04-15T17:15:40;3.55;;;2.17;;
54157;SDS011;40065;49.894;10.358;2023-04-15T17:20:42;5.85;;;3.80;;
54157;SDS011;40065;49.894;10.358;2023-04-15T17:25:44;52.97;;;25.42;;
54157;SDS011;40065;49.894;10.358;2023-04-15T17:30:46;6.55;;;4.00;;
54157;SDS011;40065;49.894;10.358;2023-04-15T17:35:51;5.25;;;3.08;;
54157;SDS011;40065;49.894;10.358;2023-04-15T17:40:53;6.75;;;4.30;;
54157;SDS011;40065;49.894;10.358;2023-04-15T17:45:55;6.60;;;4.00;;
54157;SDS011;40065;49.894;10.358;2023-04-15T17:50:59;5.73;;;3.23;;
54157;SDS011;40065;49.894;10.358;2023-04-15T17:56:00;3.92;;;3.50;;
54157;SDS011;40065;49.894;10.358;2023-04-15T18:01:02;3.60;;;2.47;;
54157;SDS011;40065;49.894;10.358;2023-04-15T18:06:04;2.97;;;2.33;;
54157;SDS011;40065;49.894;10.358;2023-04-15T18:11:06;4.28;;;3.05;;
54157;SDS011;40065;49.894;10.358;2023-04-15T18:16:09;3.13;;;2.47;;
54157;SDS011;40065;49.894;10.358;2023-04-15T18:21:11;8.23;;;5.35;;
54157;SDS011;40065;49.894;10.358;2023-04-15T18:26:14;3.67;;;2.83;;
54157;SDS011;40065;49.894;10.358;2023-04-15T18:31:25;3.33;;;2.15;;
54157;SDS011;40065;49.894;10.358;2023-04-15T18:36:27;3.30;;;2.22;;
54157;SDS011;40065;49.894;10.358;2023-04-15T18:41:29;5.15;;;2.28;;
54157;SDS011;40065;49.894;10.358;2023-04-15T18:46:31;4.72;;;3.38;;
54157;SDS011;40065;49.894;10.358;2023-04-15T18:51:33;4.78;;;3.08;;
54157;SDS011;40065;49.894;10.358;2023-04-15T18:56:35;2.78;;;2.10;;
54157;SDS011;40065;49.894;10.358;2023-04-15T19:01:36;2.97;;;2.22;;
54157;SDS011;40065;49.894;10.358;2023-04-15T19:06:38;3.30;;;2.20;;
54157;SDS011;40065;49.894;10.358;2023-04-15T19:11:41;2.78;;;1.90;;
54157;SDS011;40065;49.894;10.358;2023-04-15T19:16:43;2.80;;;1.55;;
54157;SDS011;40065;49.894;10.358;2023-04-15T19:21:45;2.88;;;1.85;;
54157;SDS011;40065;49.894;10.358;2023-04-15T19:26:49;3.40;;;1.90;;
54157;SDS011;40065;49.894;10.358;2023-04-15T19:31:51;2.50;;;1.20;;
54157;SDS011;40065;49.894;10.358;2023-04-15T19:36:53;2.65;;;1.83;;
54157;SDS011;40065;49.894;10.358;2023-04-15T19:41:56;2.65;;;1.60;;
54157;SDS011;40065;49.894;10.358;2023-04-15T19:46:59;3.03;;;1.90;;
54157;SDS011;40065;49.894;10.358;2023-04-15T19:52:01;3.35;;;2.22;;
54157;SDS011;40065;49.894;10.358;2023-04-15T19:57:04;3.10;;;2.00;;
54157;SDS011;40065;49.894;10.358;2023-04-15T20:02:07;2.80;;;1.75;;
54157;SDS011;40065;49.894;10.358;2023-04-15T20:07:12;2.95;;;1.80;;
54157;SDS011;40065;49.894;10.358;2023-04-15T20:12:26;3.05;;;1.60;;
54157;SDS011;40065;49.894;10.358;2023-04-15T20:17:51;2.97;;;1.90;;
54157;SDS011;40065;49.894;10.358;2023-04-15T20:22:53;3.67;;;2.17;;
54157;SDS011;40065;49.894;10.358;2023-04-15T20:27:54;3.20;;;2.00;;
54157;SDS011;40065;49.894;10.358;2023-04-15T20:33:01;2.50;;;1.60;;
54157;SDS011;40065;49.894;10.358;2023-04-15T20:38:02;2.50;;;1.77;;
54157;SDS011;40065;49.894;10.358;2023-04-15T20:43:05;3.47;;;1.90;;
54157;SDS011;40065;49.894;10.358;2023-04-15T20:48:06;2.28;;;1.30;;
54157;SDS011;40065;49.894;10.358;2023-04-15T20:53:08;2.83;;;1.80;;
54157;SDS011;40065;49.894;10.358;2023-04-15T20:58:11;2.10;;;1.40;;
54157;SDS011;40065;49.894;10.358;2023-04-15T21:03:12;2.95;;;1.92;;
54157;SDS011;40065;49.894;10.358;2023-04-15T21:08:20;2.83;;;1.95;;
54157;SDS011;40065;49.894;10.358;2023-04-15T21:13:29;5.45;;;2.42;;
54157;SDS011;40065;49.894;10.358;2023-04-15T21:18:31;4.88;;;3.67;;
54157;SDS011;40065;49.894;10.358;2023-04-15T21:23:32;4.53;;;3.17;;
54157;SDS011;40065;49.894;10.358;2023-04-15T21:28:36;4.35;;;3.00;;
54157;SDS011;40065;49.894;10.358;2023-04-15T21:33:39;4.70;;;3.55;;
54157;SDS011;40065;49.894;10.358;2023-04-15T21:38:40;6.68;;;5.07;;
54157;SDS011;40065;49.894;10.358;2023-04-15T21:43:42;5.97;;;4.03;;
54157;SDS011;40065;49.894;10.358;2023-04-15T21:48:44;4.78;;;2.92;;
54157;SDS011;40065;49.894;10.358;2023-04-15T21:53:46;6.10;;;4.20;;
54157;SDS011;40065;49.894;10.358;2023-04-15T21:58:48;4.47;;;2.75;;
54157;SDS011;40065;49.894;10.358;2023-04-15T22:03:51;5.25;;;3.20;;
54157;SDS011;40065;49.894;10.358;2023-04-15T22:08:53;6.78;;;4.93;;
54157;SDS011;40065;49.894;10.358;2023-04-15T22:18:59;6.10;;;3.90;;
54157;SDS011;40065;49.894;10.358;2023-04-15T22:24:03;8.65;;;5.57;;
54157;SDS011;40065;49.894;10.358;2023-04-15T22:29:26;4.82;;;3.50;;
54157;SDS011;40065;49.894;10.358;2023-04-15T22:34:28;4.88;;;3.40;;
54157;SDS011;40065;49.894;10.358;2023-04-15T22:39:29;8.20;;;4.80;;
54157;SDS011;40065;49.894;10.358;2023-04-15T22:44:31;7.88;;;5.13;;
54157;SDS011;40065;49.894;10.358;2023-04-15T22:49:33;6.18;;;3.70;;
54157;SDS011;40065;49.894;10.358;2023-04-15T22:54:36;6.10;;;3.60;;
54157;SDS011;40065;49.894;10.358;2023-04-15T22:59:38;7.72;;;5.05;;
54157;SDS011;40065;49.894;10.358;2023-04-15T23:04:39;6.38;;;3.80;;
54157;SDS011;40065;49.894;10.358;2023-04-15T23:09:41;7.22;;;3.90;;
54157;SDS011;40065;49.894;10.358;2023-04-15T23:14:43;6.80;;;4.40;;
54157;SDS011;40065;49.894;10.358;2023-04-15T23:19:45;7.38;;;4.63;;
54157;SDS011;40065;49.894;10.358;2023-04-15T23:24:47;6.95;;;4.00;;
54157;SDS011;40065;49.894;10.358;2023-04-15T23:29:48;8.07;;;4.63;;
54157;SDS011;40065;49.894;10.358;2023-04-15T23:34:50;6.65;;;3.92;;
54157;SDS011;40065;49.894;10.358;2023-04-15T23:39:52;7.22;;;3.97;;
54157;SDS011;40065;49.894;10.358;2023-04-15T23:44:56;6.07;;;4.40;;
54157;SDS011;40065;49.894;10.358;2023-04-15T23:49:57;6.00;;;3.85;;
54157;SDS011;40065;49.894;10.358;2023-04-15T23:54:59;6.43;;;3.67;;
